sensor_id;sensor_type;location;lat;lon;timestamp;pressure;altitude;pressure_sealevel;temperature;humidity
77288;BME280;66345;42.694;23.346;2023-07-02T00:01:30;94862.59;;;19.27;72.90
77288;BME280;66345;42.694;23.346;2023-07-02T00:03:55;94866.00;;;19.18;73.02
77288;BME280;66345;42.694;23.346;2023-07-02T00:06:20;94863.31;;;19.12;73.09
77288;BME280;66345;42.694;23.346;2023-07-02T00:08:46;94859.81;;;19.17;73.31
77288;BME280;66345;42.694;23.346;2023-07-02T00:11:15;94865.19;;;19.12;73.74
77288;BME280;66345;42.694;23.346;2023-07-02T00:13:40;94853.94;;;19.20;73.04
77288;BME280;66345;42.694;23.346;2023-07-02T00:16:06;94849.28;;;19.10;73.25
77288;BME280;66345;42.694;23.346;2023-07-02T00:18:31;94847.06;;;19.02;73.53
77288;BME280;66345;42.694;23.346;2023-07-02T00:21:00;94846.91;;;19.14;73.28
77288;BME280;66345;42.694;23.346;2023-07-02T00:23:28;94835.97;;;18.94;73.63
77288;BME280;66345;42.694;23.346;2023-07-02T00:25:54;94842.44;;;18.93;73.00
77288;BME280;66345;42.694;23.346;2023-07-02T00:28:20;94848.72;;;19.08;72.20
77288;BME280;66345;42.694;23.346;2023-07-02T00:30:45;94852.97;;;18.99;71.52
77288;BME280;66345;42.694;23.346;2023-07-02T00:33:10;94855.44;;;19.06;72.11
77288;BME280;66345;42.694;23.346;2023-07-02T00:35:36;94863.06;;;18.82;72.35
77288;BME280;66345;42.694;23.346;2023-07-02T00:38:02;94857.00;;;18.97;72.10
77288;BME280;66345;42.694;23.346;2023-07-02T00:40:28;94860.69;;;18.91;72.26
77288;BME280;66345;42.694;23.346;2023-07-02T00:42:53;94872.94;;;19.08;71.90
77288;BME280;66345;42.694;23.346;2023-07-02T00:45:19;94868.38;;;19.09;70.93
77288;BME280;66345;42.694;23.346;2023-07-02T00:47:45;94871.38;;;19.12;70.50
77288;BME280;66345;42.694;23.346;2023-07-02T00:50:11;94876.19;;;19.10;70.26
77288;BME280;66345;42.694;23.346;2023-07-02T00:52:37;94882.69;;;19.15;70.24
77288;BME280;66345;42.694;23.346;2023-07-02T00:55:03;94876.50;;;19.19;70.14
77288;BME280;66345;42.694;23.346;2023-07-02T00:57:29;94881.88;;;19.19;70.49
77288;BME280;66345;42.694;23.346;2023-07-02T00:59:57;94874.13;;;19.23;70.60
77288;BME280;66345;42.694;23.346;2023-07-02T01:02:23;94870.31;;;19.19;70.63
77288;BME280;66345;42.694;23.346;2023-07-02T01:04:51;94871.31;;;19.07;71.00
77288;BME280;66345;42.694;23.346;2023-07-02T01:07:17;94870.31;;;19.13;71.34
77288;BME280;66345;42.694;23.346;2023-07-02T01:09:43;94861.09;;;19.09;71.30
77288;BME280;66345;42.694;23.346;2023-07-02T01:12:09;94870.03;;;18.83;72.65
77288;BME280;66345;42.694;23.346;2023-07-02T01:14:40;94867.31;;;18.78;73.13
77288;BME280;66345;42.694;23.346;2023-07-02T01:17:07;94865.75;;;18.82;73.18
77288;BME280;66345;42.694;23.346;2023-07-02T01:22:08;94862.78;;;18.83;73.71
77288;BME280;66345;42.694;23.346;2023-07-02T01:24:35;94864.56;;;18.73;73.71
77288;BME280;66345;42.694;23.346;2023-07-02T01:27:01;94866.63;;;18.66;74.14
77288;BME280;66345;42.694;23.346;2023-07-02T01:29:29;94871.66;;;18.84;73.51
77288;BME280;66345;42.694;23.346;2023-07-02T01:31:56;94862.06;;;18.93;73.18
77288;BME280;66345;42.694;23.346;2023-07-02T01:34:21;94845.75;;;19.05;72.67
77288;BME280;66345;42.694;23.346;2023-07-02T01:36:47;94835.56;;;18.75;74.00
77288;BME280;66345;42.694;23.346;2023-07-02T01:39:12;94848.31;;;18.63;74.21
77288;BME280;66345;42.694;23.346;2023-07-02T01:44:32;94841.06;;;18.63;74.08
77288;BME280;66345;42.694;23.346;2023-07-02T01:46:58;94844.56;;;18.64;74.19
77288;BME280;66345;42.694;23.346;2023-07-02T01:49:24;94851.53;;;18.60;74.12
77288;BME280;66345;42.694;23.346;2023-07-02T01:51:51;94854.84;;;18.67;73.82
77288;BME280;66345;42.694;23.346;2023-07-02T01:54:17;94850.44;;;18.61;74.22
77288;BME280;66345;42.694;23.346;2023-07-02T01:56:42;94841.81;;;18.58;73.40
77288;BME280;66345;42.694;23.346;2023-07-02T01:59:08;94840.00;;;18.64;72.41
77288;BME280;66345;42.694;23.346;2023-07-02T02:01:34;94828.78;;;18.67;72.41
77288;BME280;66345;42.694;23.346;2023-07-02T02:03:59;94824.50;;;18.71;72.40
77288;BME280;66345;42.694;23.346;2023-07-02T02:06:25;94818.50;;;18.64;72.21
77288;BME280;66345;42.694;23.346;2023-07-02T02:08:50;94816.66;;;18.38;73.18
77288;BME280;66345;42.694;23.346;2023-07-02T02:11:15;94818.84;;;18.19;74.71
77288;BME280;66345;42.694;23.346;2023-07-02T02:13:41;94813.16;;;18.37;74.20
77288;BME280;66345;42.694;23.346;2023-07-02T02:16:06;94819.22;;;18.54;72.47
77288;BME280;66345;42.694;23.346;2023-07-02T02:18:32;94829.28;;;18.37;72.56
77288;BME280;66345;42.694;23.346;2023-07-02T02:20:57;94834.97;;;18.19;73.39
77288;BME280;66345;42.694;23.346;2023-07-02T02:23:23;94835.25;;;18.44;73.09
77288;BME280;66345;42.694;23.346;2023-07-02T02:25:48;94829.63;;;18.46;72.39
77288;BME280;66345;42.694;23.346;2023-07-02T02:28:13;94816.59;;;18.60;72.13
77288;BME280;66345;42.694;23.346;2023-07-02T02:30:39;94816.53;;;18.54;71.99
77288;BME280;66345;42.694;23.346;2023-07-02T02:33:04;94815.34;;;18.18;73.60
77288;BME280;66345;42.694;23.346;2023-07-02T02:35:30;94815.56;;;18.12;74.18
77288;BME280;66345;42.694;23.346;2023-07-02T02:37:55;94805.81;;;18.06;74.26
77288;BME280;66345;42.694;23.346;2023-07-02T02:40:21;94810.09;;;18.01;75.16
77288;BME280;66345;42.694;23.346;2023-07-02T02:42:46;94823.19;;;17.98;75.94
77288;BME280;66345;42.694;23.346;2023-07-02T02:45:11;94813.59;;;17.80;76.99
77288;BME280;66345;42.694;23.346;2023-07-02T02:47:37;94810.13;;;17.63;77.78
77288;BME280;66345;42.694;23.346;2023-07-02T02:50:03;94801.81;;;17.64;77.98
77288;BME280;66345;42.694;23.346;2023-07-02T02:52:28;94806.94;;;17.66;78.28
77288;BME280;66345;42.694;23.346;2023-07-02T02:54:53;94820.53;;;17.76;78.38
77288;BME280;66345;42.694;23.346;2023-07-02T02:57:19;94826.75;;;18.03;76.86
77288;BME280;66345;42.694;23.346;2023-07-02T02:59:44;94814.03;;;18.21;76.38
77288;BME280;66345;42.694;23.346;2023-07-02T03:02:10;94821.97;;;17.84;77.80
77288;BME280;66345;42.694;23.346;2023-07-02T03:04:35;94825.00;;;17.70;78.06
77288;BME280;66345;42.694;23.346;2023-07-02T03:07:06;94831.88;;;17.83;77.13
77288;BME280;66345;42.694;23.346;2023-07-02T03:09:32;94829.03;;;18.17;76.47
77288;BME280;66345;42.694;23.346;2023-07-02T03:11:57;94820.25;;;18.21;75.97
77288;BME280;66345;42.694;23.346;2023-07-02T03:14:23;94826.47;;;18.05;76.38
77288;BME280;66345;42.694;23.346;2023-07-02T03:16:48;94822.06;;;18.16;76.20
77288;BME280;66345;42.694;23.346;2023-07-02T03:19:13;94814.00;;;18.43;75.17
77288;BME280;66345;42.694;23.346;2023-07-02T03:21:42;94804.09;;;18.48;74.57
77288;BME280;66345;42.694;23.346;2023-07-02T03:24:08;94813.75;;;18.44;74.46
77288;BME280;66345;42.694;23.346;2023-07-02T03:26:37;94819.94;;;18.72;73.86
77288;BME280;66345;42.694;23.346;2023-07-02T03:29:02;94838.41;;;18.95;73.00
77288;BME280;66345;42.694;23.346;2023-07-02T03:31:27;94841.88;;;18.91;72.74
77288;BME280;66345;42.694;23.346;2023-07-02T03:33:53;94843.09;;;18.78;72.89
77288;BME280;66345;42.694;23.346;2023-07-02T03:36:18;94848.56;;;18.88;73.00
77288;BME280;66345;42.694;23.346;2023-07-02T03:38:44;94842.72;;;18.96;73.15
77288;BME280;66345;42.694;23.346;2023-07-02T03:41:09;94841.53;;;18.82;74.08
77288;BME280;66345;42.694;23.346;2023-07-02T03:43:35;94836.91;;;19.09;72.31
77288;BME280;66345;42.694;23.346;2023-07-02T03:46:00;94847.13;;;19.07;72.01
77288;BME280;66345;42.694;23.346;2023-07-02T03:48:26;94851.78;;;18.85;73.05
77288;BME280;66345;42.694;23.346;2023-07-02T03:50:51;94837.38;;;19.01;72.56
77288;BME280;66345;42.694;23.346;2023-07-02T03:53:16;94832.59;;;19.08;72.27
77288;BME280;66345;42.694;23.346;2023-07-02T03:55:42;94840.34;;;18.68;74.65
77288;BME280;66345;42.694;23.346;2023-07-02T03:58:07;94830.31;;;18.36;76.68
77288;BME280;66345;42.694;23.346;2023-07-02T04:00:33;94824.25;;;18.46;76.39
77288;BME280;66345;42.694;23.346;2023-07-02T04:02:58;94842.75;;;18.69;75.91
77288;BME280;66345;42.694;23.346;2023-07-02T04:05:23;94839.66;;;18.82;75.45
77288;BME280;66345;42.694;23.346;2023-07-02T04:07:49;94832.53;;;18.98;74.54
77288;BME280;66345;42.694;23.346;2023-07-02T04:10:14;94837.81;;;18.61;75.93
77288;BME280;66345;42.694;23.346;2023-07-02T04:12:40;94840.69;;;18.81;75.45
77288;BME280;66345;42.694;23.346;2023-07-02T04:15:06;94841.09;;;18.95;74.78
77288;BME280;66345;42.694;23.346;2023-07-02T04:17:31;94850.69;;;18.86;75.35
77288;BME280;66345;42.694;23.346;2023-07-02T04:20:00;94864.66;;;18.83;74.97
77288;BME280;66345;42.694;23.346;2023-07-02T04:22:25;94867.38;;;18.88;75.19
77288;BME280;66345;42.694;23.346;2023-07-02T04:24:51;94876.03;;;18.90;75.41
77288;BME280;66345;42.694;23.346;2023-07-02T04:27:16;94880.06;;;18.93;75.15
77288;BME280;66345;42.694;23.346;2023-07-02T04:29:45;94874.63;;;18.61;75.71
77288;BME280;66345;42.694;23.346;2023-07-02T04:32:10;94880.22;;;18.54;76.42
77288;BME280;66345;42.694;23.346;2023-07-02T04:34:35;94876.16;;;18.51;76.65
77288;BME280;66345;42.694;23.346;2023-07-02T04:37:05;94884.25;;;18.56;76.53
77288;BME280;66345;42.694;23.346;2023-07-02T04:39:30;94892.97;;;18.20;78.15
77288;BME280;66345;42.694;23.346;2023-07-02T04:41:56;94881.31;;;18.31;77.30
77288;BME280;66345;42.694;23.346;2023-07-02T04:44:21;94892.03;;;18.53;77.03
77288;BME280;66345;42.694;23.346;2023-07-02T04:46:57;94902.97;;;18.46;77.17
77288;BME280;66345;42.694;23.346;2023-07-02T04:49:23;94897.06;;;18.71;76.05
77288;BME280;66345;42.694;23.346;2023-07-02T04:51:50;94898.56;;;18.62;76.86
77288;BME280;66345;42.694;23.346;2023-07-02T04:54:15;94902.38;;;18.66;76.43
77288;BME280;66345;42.694;23.346;2023-07-02T04:56:40;94907.56;;;18.73;76.09
77288;BME280;66345;42.694;23.346;2023-07-02T04:59:06;94909.44;;;18.99;75.00
77288;BME280;66345;42.694;23.346;2023-07-02T05:01:31;94905.25;;;19.13;74.34
77288;BME280;66345;42.694;23.346;2023-07-02T05:03:57;94909.78;;;18.81;75.90
77288;BME280;66345;42.694;23.346;2023-07-02T05:06:22;94907.38;;;18.57;77.09
77288;BME280;66345;42.694;23.346;2023-07-02T05:08:47;94910.59;;;18.54;77.12
77288;BME280;66345;42.694;23.346;2023-07-02T05:11:13;94907.97;;;18.87;75.85
77288;BME280;66345;42.694;23.346;2023-07-02T05:13:38;94925.19;;;19.18;74.64
77288;BME280;66345;42.694;23.346;2023-07-02T05:16:04;94918.69;;;19.46;73.29
77288;BME280;66345;42.694;23.346;2023-07-02T05:18:29;94920.34;;;19.52;72.75
77288;BME280;66345;42.694;23.346;2023-07-02T05:20:54;94923.06;;;19.52;73.00
77288;BME280;66345;42.694;23.346;2023-07-02T05:23:20;94922.88;;;19.63;72.46
77288;BME280;66345;42.694;23.346;2023-07-02T05:25:45;94917.50;;;19.63;72.33
77288;BME280;66345;42.694;23.346;2023-07-02T05:28:11;94914.56;;;19.33;72.92
77288;BME280;66345;42.694;23.346;2023-07-02T05:30:36;94914.16;;;19.14;73.98
77288;BME280;66345;42.694;23.346;2023-07-02T05:33:02;94915.97;;;19.08;73.66
77288;BME280;66345;42.694;23.346;2023-07-02T05:35:27;94912.34;;;18.93;73.55
77288;BME280;66345;42.694;23.346;2023-07-02T05:37:52;94911.97;;;19.48;71.67
77288;BME280;66345;42.694;23.346;2023-07-02T05:40:18;94913.19;;;19.62;71.66
77288;BME280;66345;42.694;23.346;2023-07-02T05:42:43;94916.41;;;19.64;71.53
77288;BME280;66345;42.694;23.346;2023-07-02T05:45:09;94932.28;;;20.03;69.83
77288;BME280;66345;42.694;23.346;2023-07-02T05:47:35;94934.13;;;19.98;69.66
77288;BME280;66345;42.694;23.346;2023-07-02T05:50:00;94933.91;;;20.09;69.61
77288;BME280;66345;42.694;23.346;2023-07-02T05:52:26;94941.03;;;20.26;69.08
77288;BME280;66345;42.694;23.346;2023-07-02T05:54:51;94930.78;;;20.28;68.43
77288;BME280;66345;42.694;23.346;2023-07-02T05:57:16;94934.56;;;20.27;68.76
77288;BME280;66345;42.694;23.346;2023-07-02T05:59:42;94931.00;;;20.84;66.66
77288;BME280;66345;42.694;23.346;2023-07-02T06:02:07;94930.44;;;20.71;66.90
77288;BME280;66345;42.694;23.346;2023-07-02T06:04:33;94922.63;;;20.85;66.89
77288;BME280;66345;42.694;23.346;2023-07-02T06:06:58;94925.38;;;21.11;65.57
77288;BME280;66345;42.694;23.346;2023-07-02T06:09:23;94923.53;;;21.52;63.80
77288;BME280;66345;42.694;23.346;2023-07-02T06:11:49;94913.81;;;21.41;64.77
77288;BME280;66345;42.694;23.346;2023-07-02T06:14:14;94910.84;;;22.58;60.37
77288;BME280;66345;42.694;23.346;2023-07-02T06:16:40;94910.25;;;23.49;56.58
77288;BME280;66345;42.694;23.346;2023-07-02T06:19:05;94911.91;;;23.11;57.84
77288;BME280;66345;42.694;23.346;2023-07-02T06:21:31;94901.47;;;22.89;58.39
77288;BME280;66345;42.694;23.346;2023-07-02T06:23:56;94899.63;;;22.90;58.40
77288;BME280;66345;42.694;23.346;2023-07-02T06:26:23;94902.69;;;22.63;59.06
77288;BME280;66345;42.694;23.346;2023-07-02T06:28:49;94896.56;;;22.52;58.87
77288;BME280;66345;42.694;23.346;2023-07-02T06:31:14;94902.63;;;22.13;60.63
77288;BME280;66345;42.694;23.346;2023-07-02T06:33:40;94901.34;;;21.85;61.33
77288;BME280;66345;42.694;23.346;2023-07-02T06:36:06;94900.75;;;22.04;61.96
77288;BME280;66345;42.694;23.346;2023-07-02T06:38:31;94908.06;;;22.08;61.31
77288;BME280;66345;42.694;23.346;2023-07-02T06:40:56;94906.75;;;21.80;61.55
77288;BME280;66345;42.694;23.346;2023-07-02T06:43:22;94905.66;;;21.15;64.40
77288;BME280;66345;42.694;23.346;2023-07-02T06:45:47;94899.72;;;20.83;65.12
77288;BME280;66345;42.694;23.346;2023-07-02T06:48:13;94897.31;;;21.68;62.12
77288;BME280;66345;42.694;23.346;2023-07-02T06:50:44;94898.97;;;21.38;63.10
77288;BME280;66345;42.694;23.346;2023-07-02T06:53:09;94899.22;;;21.37;63.27
77288;BME280;66345;42.694;23.346;2023-07-02T06:55:35;94898.69;;;21.09;64.17
77288;BME280;66345;42.694;23.346;2023-07-02T06:58:00;94895.47;;;21.43;63.14
77288;BME280;66345;42.694;23.346;2023-07-02T07:00:26;94895.44;;;21.53;62.77
77288;BME280;66345;42.694;23.346;2023-07-02T07:02:51;94906.97;;;22.09;60.53
77288;BME280;66345;42.694;23.346;2023-07-02T07:05:16;94910.72;;;22.24;59.49
77288;BME280;66345;42.694;23.346;2023-07-02T07:07:42;94903.72;;;22.77;58.47
77288;BME280;66345;42.694;23.346;2023-07-02T07:10:08;94901.19;;;23.35;56.88
77288;BME280;66345;42.694;23.346;2023-07-02T07:12:33;94902.84;;;22.82;58.70
77288;BME280;66345;42.694;23.346;2023-07-02T07:14:59;94900.56;;;23.43;56.30
77288;BME280;66345;42.694;23.346;2023-07-02T07:17:24;94898.56;;;23.54;56.17
77288;BME280;66345;42.694;23.346;2023-07-02T07:19:49;94900.34;;;23.98;54.77
77288;BME280;66345;42.694;23.346;2023-07-02T07:22:15;94902.91;;;24.13;53.98
77288;BME280;66345;42.694;23.346;2023-07-02T07:24:41;94898.50;;;23.64;54.77
77288;BME280;66345;42.694;23.346;2023-07-02T07:27:07;94897.81;;;23.48;55.97
77288;BME280;66345;42.694;23.346;2023-07-02T07:29:32;94901.44;;;23.97;55.18
77288;BME280;66345;42.694;23.346;2023-07-02T07:31:58;94900.47;;;23.19;55.99
77288;BME280;66345;42.694;23.346;2023-07-02T07:34:23;94901.88;;;23.51;55.71
77288;BME280;66345;42.694;23.346;2023-07-02T07:36:49;94899.34;;;22.86;56.28
77288;BME280;66345;42.694;23.346;2023-07-02T07:39:14;94887.59;;;22.52;57.20
77288;BME280;66345;42.694;23.346;2023-07-02T07:41:39;94887.72;;;22.26;58.74
77288;BME280;66345;42.694;23.346;2023-07-02T07:44:05;94888.16;;;22.49;58.46
77288;BME280;66345;42.694;23.346;2023-07-02T07:46:30;94891.97;;;22.48;57.89
77288;BME280;66345;42.694;23.346;2023-07-02T07:48:56;94892.53;;;22.39;58.06
77288;BME280;66345;42.694;23.346;2023-07-02T07:51:21;94889.50;;;22.51;58.12
77288;BME280;66345;42.694;23.346;2023-07-02T07:53:46;94900.66;;;22.34;58.89
77288;BME280;66345;42.694;23.346;2023-07-02T07:56:12;94898.63;;;23.15;56.48
77288;BME280;66345;42.694;23.346;2023-07-02T07:58:37;94896.66;;;22.86;57.52
77288;BME280;66345;42.694;23.346;2023-07-02T08:01:03;94898.00;;;24.39;53.24
77288;BME280;66345;42.694;23.346;2023-07-02T08:03:28;94905.81;;;23.93;53.82
77288;BME280;66345;42.694;23.346;2023-07-02T08:05:54;94906.25;;;24.53;53.19
77288;BME280;66345;42.694;23.346;2023-07-02T08:08:19;94887.63;;;26.33;48.24
77288;BME280;66345;42.694;23.346;2023-07-02T08:10:44;94893.53;;;27.49;44.31
77288;BME280;66345;42.694;23.346;2023-07-02T08:13:11;94895.41;;;27.40;45.74
77288;BME280;66345;42.694;23.346;2023-07-02T08:15:37;94899.25;;;26.39;47.01
77288;BME280;66345;42.694;23.346;2023-07-02T08:18:03;94902.63;;;26.03;47.84
77288;BME280;66345;42.694;23.346;2023-07-02T08:20:29;94916.34;;;24.90;49.95
77288;BME280;66345;42.694;23.346;2023-07-02T08:22:54;94908.56;;;24.65;51.17
77288;BME280;66345;42.694;23.346;2023-07-02T08:25:20;94893.00;;;25.78;49.21
77288;BME280;66345;42.694;23.346;2023-07-02T08:27:47;94900.16;;;25.04;50.64
77288;BME280;66345;42.694;23.346;2023-07-02T08:30:12;94900.25;;;24.94;51.55
77288;BME280;66345;42.694;23.346;2023-07-02T08:32:37;94894.56;;;25.14;50.44
77288;BME280;66345;42.694;23.346;2023-07-02T08:35:03;94893.66;;;24.14;52.94
77288;BME280;66345;42.694;23.346;2023-07-02T08:37:29;94892.22;;;24.88;51.13
77288;BME280;66345;42.694;23.346;2023-07-02T08:39:54;94891.47;;;24.16;53.64
77288;BME280;66345;42.694;23.346;2023-07-02T08:42:20;94894.63;;;23.75;54.41
77288;BME280;66345;42.694;23.346;2023-07-02T08:44:46;94891.81;;;24.76;52.01
77288;BME280;66345;42.694;23.346;2023-07-02T08:47:12;94885.03;;;25.16;50.59
77288;BME280;66345;42.694;23.346;2023-07-02T08:49:38;94892.41;;;24.73;51.03
77288;BME280;66345;42.694;23.346;2023-07-02T08:52:04;94890.38;;;24.65;52.59
77288;BME280;66345;42.694;23.346;2023-07-02T08:54:29;94894.94;;;25.07;50.62
77288;BME280;66345;42.694;23.346;2023-07-02T08:56:55;94886.00;;;26.32;47.77
77288;BME280;66345;42.694;23.346;2023-07-02T08:59:21;94880.91;;;26.94;45.92
77288;BME280;66345;42.694;23.346;2023-07-02T09:01:51;94884.13;;;27.55;44.36
77288;BME280;66345;42.694;23.346;2023-07-02T09:04:24;94880.94;;;29.29;40.42
77288;BME280;66345;42.694;23.346;2023-07-02T09:07:06;94891.03;;;28.94;40.69
77288;BME280;66345;42.694;23.346;2023-07-02T09:09:31;94879.88;;;30.03;38.32
77288;BME280;66345;42.694;23.346;2023-07-02T09:11:57;94880.00;;;27.88;43.17
77288;BME280;66345;42.694;23.346;2023-07-02T09:14:27;94871.03;;;28.67;41.52
77288;BME280;66345;42.694;23.346;2023-07-02T09:19:28;94879.06;;;28.24;41.72
77288;BME280;66345;42.694;23.346;2023-07-02T09:21:57;94883.91;;;27.96;42.81
77288;BME280;66345;42.694;23.346;2023-07-02T09:24:25;94878.19;;;27.30;43.69
77288;BME280;66345;42.694;23.346;2023-07-02T09:26:55;94875.50;;;25.52;47.78
77288;BME280;66345;42.694;23.346;2023-07-02T09:29:32;94875.72;;;26.70;45.07
77288;BME280;66345;42.694;23.346;2023-07-02T09:32:02;94876.94;;;27.14;45.00
77288;BME280;66345;42.694;23.346;2023-07-02T09:34:29;94874.91;;;26.70;44.96
77288;BME280;66345;42.694;23.346;2023-07-02T09:36:56;94870.00;;;26.17;47.13
77288;BME280;66345;42.694;23.346;2023-07-02T09:39:32;94866.53;;;25.84;46.99
77288;BME280;66345;42.694;23.346;2023-07-02T09:42:00;94867.44;;;25.79;48.00
77288;BME280;66345;42.694;23.346;2023-07-02T09:44:33;94867.81;;;25.40;49.10
77288;BME280;66345;42.694;23.346;2023-07-02T09:47:06;94858.38;;;26.66;47.81
77288;BME280;66345;42.694;23.346;2023-07-02T09:49:40;94867.75;;;25.91;47.98
77288;BME280;66345;42.694;23.346;2023-07-02T09:52:08;94863.22;;;26.28;47.48
77288;BME280;66345;42.694;23.346;2023-07-02T09:54:34;94868.06;;;26.59;47.28
77288;BME280;66345;42.694;23.346;2023-07-02T09:57:00;94854.97;;;26.61;46.87
77288;BME280;66345;42.694;23.346;2023-07-02T09:59:25;94861.38;;;26.78;46.64
77288;BME280;66345;42.694;23.346;2023-07-02T10:01:51;94864.75;;;26.98;45.82
77288;BME280;66345;42.694;23.346;2023-07-02T10:04:19;94859.13;;;27.75;44.55
77288;BME280;66345;42.694;23.346;2023-07-02T10:06:51;94856.81;;;28.96;41.72
77288;BME280;66345;42.694;23.346;2023-07-02T10:09:19;94855.94;;;27.82;43.35
77288;BME280;66345;42.694;23.346;2023-07-02T10:11:45;94852.41;;;27.81;43.23
77288;BME280;66345;42.694;23.346;2023-07-02T10:14:11;94842.47;;;28.73;41.80
77288;BME280;66345;42.694;23.346;2023-07-02T10:16:50;94837.75;;;29.87;38.39
77288;BME280;66345;42.694;23.346;2023-07-02T10:19:15;94833.28;;;31.21;35.50
77288;BME280;66345;42.694;23.346;2023-07-02T10:21:41;94826.72;;;33.51;33.11
77288;BME280;66345;42.694;23.346;2023-07-02T10:26:36;94818.75;;;33.33;30.37
77288;BME280;66345;42.694;23.346;2023-07-02T10:29:02;94803.94;;;35.89;27.72
77288;BME280;66345;42.694;23.346;2023-07-02T10:31:27;94808.84;;;34.67;29.06
77288;BME280;66345;42.694;23.346;2023-07-02T10:33:53;94798.22;;;35.20;28.82
77288;BME280;66345;42.694;23.346;2023-07-02T10:36:23;94815.66;;;30.68;34.54
77288;BME280;66345;42.694;23.346;2023-07-02T10:38:50;94813.09;;;29.14;39.63
77288;BME280;66345;42.694;23.346;2023-07-02T10:41:27;94828.47;;;27.78;41.03
77288;BME280;66345;42.694;23.346;2023-07-02T10:43:52;94819.88;;;27.93;42.11
77288;BME280;66345;42.694;23.346;2023-07-02T10:46:21;94818.38;;;26.89;43.69
77288;BME280;66345;42.694;23.346;2023-07-02T10:48:51;94814.56;;;26.13;44.51
77288;BME280;66345;42.694;23.346;2023-07-02T10:51:17;94806.06;;;27.05;43.67
77288;BME280;66345;42.694;23.346;2023-07-02T10:53:42;94809.88;;;27.80;40.92
77288;BME280;66345;42.694;23.346;2023-07-02T10:56:15;94801.53;;;27.77;40.11
77288;BME280;66345;42.694;23.346;2023-07-02T10:58:44;94802.78;;;27.03;42.63
77288;BME280;66345;42.694;23.346;2023-07-02T11:01:10;94800.69;;;27.14;43.39
77288;BME280;66345;42.694;23.346;2023-07-02T11:03:35;94797.66;;;27.69;43.58
77288;BME280;66345;42.694;23.346;2023-07-02T11:06:01;94800.72;;;27.76;39.93
77288;BME280;66345;42.694;23.346;2023-07-02T11:08:44;94796.56;;;27.79;38.91
77288;BME280;66345;42.694;23.346;2023-07-02T11:11:10;94791.88;;;27.17;40.53
77288;BME280;66345;42.694;23.346;2023-07-02T11:13:44;94794.84;;;27.29;41.29
77288;BME280;66345;42.694;23.346;2023-07-02T11:16:21;94795.50;;;27.35;39.55
77288;BME280;66345;42.694;23.346;2023-07-02T11:18:50;94795.03;;;27.64;39.75
77288;BME280;66345;42.694;23.346;2023-07-02T11:21:15;94792.69;;;27.71;39.12
77288;BME280;66345;42.694;23.346;2023-07-02T11:23:41;94784.00;;;28.09;37.69
77288;BME280;66345;42.694;23.346;2023-07-02T11:26:06;94788.59;;;28.31;37.70
77288;BME280;66345;42.694;23.346;2023-07-02T11:28:32;94795.63;;;28.32;39.29
77288;BME280;66345;42.694;23.346;2023-07-02T11:30:59;94799.06;;;27.98;39.05
77288;BME280;66345;42.694;23.346;2023-07-02T11:33:37;94806.47;;;27.44;40.96
77288;BME280;66345;42.694;23.346;2023-07-02T11:36:04;94805.88;;;26.88;43.87
77288;BME280;66345;42.694;23.346;2023-07-02T11:38:30;94807.31;;;26.49;46.86
77288;BME280;66345;42.694;23.346;2023-07-02T11:40:55;94807.75;;;26.15;47.78
77288;BME280;66345;42.694;23.346;2023-07-02T11:43:21;94809.84;;;26.46;47.17
77288;BME280;66345;42.694;23.346;2023-07-02T11:45:46;94812.06;;;25.89;47.92
77288;BME280;66345;42.694;23.346;2023-07-02T11:48:12;94805.91;;;26.11;47.63
77288;BME280;66345;42.694;23.346;2023-07-02T11:50:38;94804.06;;;26.61;46.18
77288;BME280;66345;42.694;23.346;2023-07-02T11:53:03;94805.19;;;27.19;46.81
77288;BME280;66345;42.694;23.346;2023-07-02T11:55:29;94802.06;;;27.34;45.34
77288;BME280;66345;42.694;23.346;2023-07-02T11:57:54;94800.78;;;27.09;45.58
77288;BME280;66345;42.694;23.346;2023-07-02T12:00:19;94796.00;;;27.37;44.58
77288;BME280;66345;42.694;23.346;2023-07-02T12:02:45;94798.47;;;27.47;44.26
77288;BME280;66345;42.694;23.346;2023-07-02T12:05:11;94797.28;;;26.95;42.96
77288;BME280;66345;42.694;23.346;2023-07-02T12:07:36;94806.88;;;26.92;42.47
77288;BME280;66345;42.694;23.346;2023-07-02T12:10:02;94818.06;;;26.68;40.57
77288;BME280;66345;42.694;23.346;2023-07-02T12:12:27;94819.06;;;26.59;41.07
77288;BME280;66345;42.694;23.346;2023-07-02T12:14:52;94817.09;;;26.09;41.63
77288;BME280;66345;42.694;23.346;2023-07-02T12:17:18;94815.09;;;26.15;41.77
77288;BME280;66345;42.694;23.346;2023-07-02T12:19:43;94823.44;;;26.05;42.83
77288;BME280;66345;42.694;23.346;2023-07-02T12:22:09;94830.19;;;25.93;43.17
77288;BME280;66345;42.694;23.346;2023-07-02T12:24:34;94831.59;;;25.91;44.50
77288;BME280;66345;42.694;23.346;2023-07-02T12:27:00;94837.72;;;25.83;46.23
77288;BME280;66345;42.694;23.346;2023-07-02T12:29:25;94842.63;;;25.67;48.28
77288;BME280;66345;42.694;23.346;2023-07-02T12:31:50;94836.66;;;25.51;48.66
77288;BME280;66345;42.694;23.346;2023-07-02T12:34:16;94830.38;;;25.04;52.54
77288;BME280;66345;42.694;23.346;2023-07-02T12:36:41;94829.56;;;25.04;53.95
77288;BME280;66345;42.694;23.346;2023-07-02T12:39:07;94832.03;;;25.00;54.90
77288;BME280;66345;42.694;23.346;2023-07-02T12:41:33;94833.69;;;25.34;55.37
77288;BME280;66345;42.694;23.346;2023-07-02T12:43:58;94827.09;;;25.54;53.27
77288;BME280;66345;42.694;23.346;2023-07-02T12:46:24;94828.97;;;25.99;52.63
77288;BME280;66345;42.694;23.346;2023-07-02T12:48:49;94830.78;;;26.04;53.72
77288;BME280;66345;42.694;23.346;2023-07-02T12:51:15;94829.41;;;25.93;51.74
77288;BME280;66345;42.694;23.346;2023-07-02T12:53:40;94834.13;;;26.01;51.11
77288;BME280;66345;42.694;23.346;2023-07-02T12:56:06;94834.72;;;25.98;49.95